Corning, New York
Current Conditions -  °F | °C
As of 9:53 AM on Wednesday 22 Oct 2014 (Local Time) from KELM Reporting Station
Haze Haze  
Wind Chill: 42°   Ceiling: 600
Heat Index: 47°   Visibility: 6mi
Dew Point: 45°   Wind: 10mph
Humidity: 93%   Direction: 30°NNE
Pressure: 30.11"   Gusts: 22mph
Location:  42.14°N, 77.05°W
Report Text: KELM 221353Z 03009G19KT 6SM BR OVC006 08/07 A3011 RMK AO2 RAB02E09 SLP198 P0000 T00830072
Loading
Personal Weather Stations






























Interactive Weather Map
Tropical Storm Tracking
New forecast layout! Learn more

10-Day Weather Forecast

Advertisements
Track Severe Weather on mobile